Aérodrome :
LOGIN :

S'inscrire | Disclaimer

   EN    FR    IT 

 










Légende :    VFR   VFR Marginal   IFR   IFR Intensif   IFR Très Intensif
Visi : 
Plafond : 
>= 8 km
>= 3000ft
5 à 8 km
1000 à 3000 ft
1500m à 5 km
500 à 1000 ft
800 à 1500m
200 à 500 ft
< 800m
< 200 ft
Symboles :   Orages  Brouillard  Fortes neiges  Fortes précipitations  Vent > 20 kt
SIGMETs :   Divers  Orages  Givrage  Turbulence  Onde Orograph.  Cendres Volcan.






- Altitude de l'aérodrome : 13 ft
- Code IATA : OST


EBOS - Oostend bruges Int.

DERNIER METAR :
  • 071420Z 25013KT 9999 BKN042 09/06 Q1014 NOSIG

METARs EXPIRÉS :
  • 071350Z 25013KT 9999 BKN042 10/06 Q1014 NOSIG
  • 071320Z 26014KT 9999 BKN042 10/06 Q1014 NOSIG
  • 071250Z 25013KT 9999 BKN042 10/07 Q1015 NOSIG
  • 071220Z 25012KT 9999 BKN042 10/07 Q1015 NOSIG
  • 071150Z 25012KT 9999 BKN042 10/07 Q1015 NOSIG

TAF TAF EBOS
Valide du 07 à 12h jusqu'au 08 à 18h UTC


071110Z 0712/0818 23013KT 9999 FEW018 BKN045
BECMG 0800/0802 BKN013
TEMPO 0804/0808 21020G32KT 4000 RA
BECMG 0808/0810 FEW020
PROB40
TEMPO 0816/0818 22015G25KT 3500 SHRA BKN014CB



MET'MAP, la Météo Aéronautique d'un coup d'oeil ! - Copyright ORBIFLY Décembre 2007 - Disclaimer

ORBIFLY MET'MAP TEAM :

Programmation & Développement : Alexandra Zaïnal
Sur une idée originale de : Baudouin d'Aumeries
Assistance à la programmation : Marc-Olivier Méhu
Soutien technique & logistique : Manuel Goepfert

Contact : metmap@orbifly.com




SOURCES & CREDITS :

   NOAA